NCAR-RAP Real-Time Weather Data

Output produced by METARs form (23 June 2018  19:28 UTC)
found at http://weather.rap.ucar.edu/surface/
 
RORS 231000Z 19009KT 9999 FEW011 BKN/// 28/27 Q1009
RORS 230900Z 19013KT 9999 FEW011 BKN/// 29/27 Q1009
RORS 230800Z 19012KT 9999 FEW013 SCT/// 30/27 Q1008
RORS 230700Z 20013KT 9999 FEW015 BKN/// 31/27 Q1009
RORS 230600Z 21012KT 9999 SCT017 BKN/// 31/27 Q1009
RORS 230500Z 19016KT 9999 FEW015 BKN/// 30/26 Q1008
RORS 230400Z 20013KT 9999 FEW015 BKN/// 30/27 Q1009
RORS 230300Z 20013KT 9999 FEW014 SCT170 BKN/// 30/27 Q1009
RORS 230200Z 19017KT 9999 FEW014 BKN/// 31/26 Q1009
RORS 230100Z 19016KT 9999 FEW014 BKN/// 30/26 Q1009
RORS 230000Z 19016KT 9999 SCT014 BKN/// 30/27 Q1009
RORS 222300Z 19015KT 9999 FEW012 BKN/// 29/26 Q1009
RORS 222200Z 19015KT 9999 FEW010 BKN/// 28/26 Q1009
RORS 221000Z 21012KT 9999 FEW008 BKN/// 28/27 Q1007
RORS 220900Z 20012KT 9999 FEW010 SCT/// 29/27 Q1007
RORS 220800Z 20013KT 9999 BKN010 30/27 Q1007
RORS 220700Z 20013KT 9999 SCT011 30/27 Q1007
RORS 220600Z 19014KT 9999 BKN012 31/27 Q1007
RORS 220500Z 19017KT 9999 SCT011 BKN016 31/27 Q1007
RORS 220400Z 18015KT 9999 BKN010 30/27 Q1007
RORS 220300Z 19014KT 9999 FEW013 30/27 Q1008
RORS 220200Z 19013KT 9999 FEW015 30/27 Q1008
RORS 220100Z 19013KT 9999 FEW010 SCT/// 30/27 Q1009
RORS 220000Z 19011KT 9999 FEW010 BKN/// 29/27 Q1009
RORS 212300Z 19013KT 9000 FEW008 BKN/// 29/27 Q1009
RORS 212200Z 18011KT 9000 FEW008 BKN/// 28/26 Q1008
RORS 211000Z 17010KT 9999 FEW014 BKN/// 28/26 Q1007
RORS 210900Z 18011KT 9999 FEW014 BKN/// 29/26 Q1006
RORS 210800Z 19011KT 9999 FEW015 SCT/// 29/27 Q1006